Time;durP1;ratioP1;P1;durP2;ratioP2;P2;SDS_P1;SDS_P2;PMS_P1;PMS_P2;Temp;Humidity;BMP_temperature;BMP_pressure;BME280_temperature;BME280_humidity;BME280_pressure;Samples;Min_cycle;Max_cycle;Signal;HPM_P1;HPM_P2
2023/07/26 00:01:45;;;;;;;3.63;1.52;;;12.90;99.90;;;;;;5014671;28;20632;-93
2023/07/26 00:04:10;;;;;;;5.05;1.30;;;12.90;99.90;;;;;;5014930;28;20179;-91
2023/07/26 00:06:40;;;;;;;3.25;1.40;;;12.90;99.90;;;;;;5031016;28;20867;-91
2023/07/26 00:09:08;;;;;;;3.03;1.20;;;12.90;99.90;;;;;;5014790;28;20187;-94
2023/07/26 00:11:35;;;;;;;6.53;1.80;;;12.90;99.90;;;;;;5014758;28;20186;-93
2023/07/26 00:14:01;;;;;;;4.40;1.52;;;12.90;99.90;;;;;;5014683;28;20206;-94
2023/07/26 00:16:26;;;;;;;6.38;1.70;;;12.90;99.90;;;;;;5014355;28;20183;-94
2023/07/26 00:18:55;;;;;;;3.65;1.27;;;12.90;99.90;;;;;;5014716;28;20233;-94
2023/07/26 00:21:21;;;;;;;4.30;1.50;;;12.90;99.90;;;;;;5014558;28;20182;-95
2023/07/26 00:23:46;;;;;;;4.78;1.50;;;12.90;99.90;;;;;;5014868;28;20183;-93
2023/07/26 00:26:12;;;;;;;2.65;1.33;;;12.90;99.90;;;;;;5014472;28;20190;-94
2023/07/26 00:28:39;;;;;;;5.50;1.45;;;12.90;99.90;;;;;;5014413;28;20576;-92
2023/07/26 00:31:05;;;;;;;7.55;1.83;;;13.00;99.90;;;;;;5015011;28;20164;-93
2023/07/26 00:33:30;;;;;;;3.53;1.30;;;12.90;99.90;;;;;;5011028;28;20222;-93
2023/07/26 00:35:56;;;;;;;5.13;1.42;;;12.90;99.90;;;;;;5011170;28;20525;-93
2023/07/26 00:38:22;;;;;;;10.85;1.70;;;12.90;99.90;;;;;;5011245;28;20323;-96
2023/07/26 00:40:47;;;;;;;7.65;1.73;;;12.90;99.90;;;;;;5011290;28;20179;-92
2023/07/26 00:43:13;;;;;;;3.50;1.30;;;12.80;99.90;;;;;;5010840;28;20628;-92
2023/07/26 00:45:41;;;;;;;4.25;1.30;;;12.90;99.90;;;;;;5010653;28;20315;-95
2023/07/26 00:48:07;;;;;;;3.92;1.55;;;12.80;99.90;;;;;;5010988;28;20222;-92
2023/07/26 00:50:33;;;;;;;5.35;1.40;;;12.80;99.90;;;;;;5010828;28;20607;-94
2023/07/26 00:52:59;;;;;;;3.20;1.40;;;12.80;99.90;;;;;;5010716;28;20246;-94
2023/07/26 00:55:26;;;;;;;5.65;1.60;;;12.80;99.90;;;;;;5011110;28;20176;-94
2023/07/26 00:57:58;;;;;;;3.15;1.30;;;12.80;99.90;;;;;;4995716;28;20250;-94
2023/07/26 01:00:23;;;;;;;4.93;1.40;;;12.80;99.90;;;;;;5010586;28;20168;-94
2023/07/26 01:02:49;;;;;;;4.38;1.13;;;12.80;99.90;;;;;;5014032;28;20210;-93
2023/07/26 01:05:15;;;;;;;2.78;1.33;;;12.70;99.90;;;;;;5030535;28;20518;-92
2023/07/26 01:08:06;;;;;;;2.72;1.20;;;12.70;99.90;;;;;;5014167;28;20270;-93
2023/07/26 01:10:49;;;;;;;4.72;1.40;;;12.70;99.90;;;;;;5015254;28;20258;-92
2023/07/26 01:13:24;;;;;;;5.05;1.48;;;12.70;99.90;;;;;;5015027;28;20206;-92
2023/07/26 01:15:51;;;;;;;5.93;1.50;;;12.70;99.90;;;;;;5013890;28;20229;-93
2023/07/26 01:18:19;;;;;;;2.85;1.52;;;12.60;99.90;;;;;;5015174;28;20203;-93
2023/07/26 01:20:45;;;;;;;3.85;1.75;;;12.60;99.90;;;;;;5013854;28;20183;-92
2023/07/26 01:23:10;;;;;;;3.75;1.60;;;12.60;99.90;;;;;;5013951;28;20621;-94
2023/07/26 01:25:36;;;;;;;3.88;1.75;;;12.60;99.90;;;;;;5013765;28;20176;-93
2023/07/26 01:28:03;;;;;;;5.88;1.50;;;12.60;99.90;;;;;;5013753;28;20180;-93
2023/07/26 01:30:31;;;;;;;3.88;1.17;;;12.60;99.90;;;;;;5013572;28;20171;-95
2023/07/26 01:33:05;;;;;;;3.92;1.42;;;12.50;99.90;;;;;;5014831;28;20206;-95
2023/07/26 01:35:32;;;;;;;11.20;1.63;;;12.50;99.90;;;;;;5013653;28;20266;-94
2023/07/26 01:37:59;;;;;;;6.65;1.67;;;12.50;99.90;;;;;;5013761;28;20262;-93
2023/07/26 01:40:26;;;;;;;7.60;1.65;;;12.50;99.90;;;;;;5013516;28;20180;-91
2023/07/26 01:42:53;;;;;;;5.03;1.73;;;12.50;99.90;;;;;;5014654;28;20630;-91
2023/07/26 01:45:19;;;;;;;3.60;1.23;;;12.60;99.90;;;;;;5017099;28;20226;-94
2023/07/26 01:47:53;;;;;;;5.28;1.35;;;12.60;99.90;;;;;;5017307;28;20198;-94
2023/07/26 01:50:19;;;;;;;5.05;1.30;;;12.70;99.90;;;;;;5017087;28;20519;-93
2023/07/26 01:52:45;;;;;;;4.85;1.50;;;12.70;99.90;;;;;;5016932;28;20172;-94
2023/07/26 01:55:11;;;;;;;4.03;1.70;;;12.70;99.90;;;;;;5017083;28;20187;-92
2023/07/26 01:57:36;;;;;;;5.22;1.70;;;12.60;99.90;;;;;;5016697;28;20249;-93
2023/07/26 02:00:04;;;;;;;4.53;1.38;;;12.60;99.90;;;;;;5016852;28;20552;-91
2023/07/26 02:02:30;;;;;;;4.75;1.42;;;12.70;99.90;;;;;;5016754;28;20172;-91
2023/07/26 02:04:56;;;;;;;4.10;1.40;;;12.70;99.90;;;;;;5033390;28;20186;-94
2023/07/26 02:07:21;;;;;;;4.05;1.75;;;12.60;99.90;;;;;;5016844;28;20186;-93
2023/07/26 02:09:50;;;;;;;4.40;1.38;;;12.70;99.90;;;;;;5016700;28;20186;-92
2023/07/26 02:12:16;;;;;;;4.97;1.40;;;12.70;99.90;;;;;;5016716;28;20175;-93
2023/07/26 02:14:42;;;;;;;6.32;1.35;;;12.70;99.90;;;;;;5017170;28;20211;-93
2023/07/26 02:17:07;;;;;;;8.25;1.60;;;12.60;99.90;;;;;;5487723;22;20233;-92
2023/07/26 02:19:33;;;;;;;6.30;1.50;;;12.60;99.90;;;;;;5039250;28;20198;-93
2023/07/26 02:21:59;;;;;;;5.10;1.50;;;12.50;99.90;;;;;;5039761;28;20197;-94
2023/07/26 02:24:24;;;;;;;5.93;1.40;;;12.50;99.90;;;;;;5039437;28;20209;-92
2023/07/26 02:26:50;;;;;;;4.28;1.65;;;12.50;99.90;;;;;;5056065;28;20189;-94
2023/07/26 02:29:17;;;;;;;5.18;1.40;;;12.50;99.90;;;;;;5055922;28;20638;-93
2023/07/26 02:31:42;;;;;;;2.58;1.40;;;12.60;99.90;;;;;;5056007;28;20228;-92
2023/07/26 02:34:08;;;;;;;7.18;1.85;;;12.50;99.90;;;;;;5055671;28;20585;-92
2023/07/26 02:36:34;;;;;;;4.80;1.67;;;12.50;99.90;;;;;;5057152;28;20560;-93
2023/07/26 02:38:59;;;;;;;4.38;1.60;;;12.40;99.90;;;;;;5055303;28;20268;-93
2023/07/26 02:41:25;;;;;;;4.85;1.50;;;12.40;99.90;;;;;;5055432;28;20170;-94
2023/07/26 02:43:51;;;;;;;3.45;1.33;;;12.40;99.90;;;;;;5056957;28;20245;-95
2023/07/26 02:46:16;;;;;;;3.97;1.58;;;12.40;99.90;;;;;;5056155;28;20268;-94
2023/07/26 02:48:43;;;;;;;5.63;2.30;;;12.40;99.90;;;;;;5055715;28;20604;-94
2023/07/26 02:51:09;;;;;;;5.25;1.65;;;12.40;99.90;;;;;;5055836;28;20169;-94
2023/07/26 02:53:34;;;;;;;3.83;1.42;;;12.40;99.90;;;;;;5055476;28;20232;-93
2023/07/26 02:56:00;;;;;;;4.18;1.70;;;12.30;99.90;;;;;;5055706;28;20180;-92
2023/07/26 02:58:28;;;;;;;5.35;1.70;;;12.30;99.90;;;;;;5041033;28;20193;-95
2023/07/26 03:00:54;;;;;;;5.32;1.77;;;12.30;99.90;;;;;;5038920;28;20635;-92
2023/07/26 03:03:19;;;;;;;2.90;1.40;;;12.30;99.90;;;;;;5038729;28;20197;-94
2023/07/26 03:05:45;;;;;;;3.70;1.67;;;12.30;99.90;;;;;;5038783;28;20181;-93
2023/07/26 03:08:11;;;;;;;4.63;1.45;;;12.40;99.90;;;;;;5039139;28;20169;-96
2023/07/26 03:10:37;;;;;;;5.10;1.80;;;12.30;99.90;;;;;;5038702;28;20208;-93
2023/07/26 03:13:03;;;;;;;2.72;1.50;;;12.40;99.90;;;;;;5055786;28;20182;-93
2023/07/26 03:15:31;;;;;;;8.38;2.05;;;12.40;99.90;;;;;;5056430;28;20181;-92
2023/07/26 03:17:56;;;;;;;4.40;1.45;;;12.40;99.90;;;;;;5038420;28;20230;-94
2023/07/26 03:20:22;;;;;;;3.70;1.67;;;12.40;99.90;;;;;;5038687;28;20220;-94
2023/07/26 03:22:48;;;;;;;2.30;1.42;;;12.40;99.90;;;;;;5038639;28;20174;-94
2023/07/26 03:25:14;;;;;;;5.32;1.73;;;12.40;99.90;;;;;;5038438;28;20174;-94
2023/07/26 03:27:39;;;;;;;1.85;1.38;;;12.50;99.90;;;;;;5038426;28;20173;-91
2023/07/26 03:30:07;;;;;;;5.45;1.67;;;12.50;99.90;;;;;;5038336;28;20276;-94
2023/07/26 03:32:32;;;;;;;3.42;1.40;;;12.50;99.90;;;;;;5037720;28;20615;-94
2023/07/26 03:34:58;;;;;;;3.50;1.50;;;12.50;99.90;;;;;;5038678;28;20281;-96
2023/07/26 03:37:24;;;;;;;6.05;1.33;;;12.60;99.90;;;;;;5038399;28;20185;-93
2023/07/26 03:39:51;;;;;;;3.67;1.40;;;12.60;99.90;;;;;;5038119;28;20521;-93
2023/07/26 03:42:17;;;;;;;4.53;1.80;;;12.60;99.90;;;;;;5038117;28;20269;-93
2023/07/26 03:44:43;;;;;;;4.78;1.83;;;12.60;99.90;;;;;;5037805;28;20260;-93
2023/07/26 03:47:09;;;;;;;2.60;1.33;;;12.70;99.90;;;;;;5038089;28;20231;-93
2023/07/26 03:49:39;;;;;;;2.63;1.42;;;12.70;99.90;;;;;;5037673;28;20182;-95
2023/07/26 03:52:06;;;;;;;6.05;1.33;;;12.70;99.90;;;;;;5037938;28;20170;-93
2023/07/26 03:54:31;;;;;;;2.65;1.50;;;12.70;99.90;;;;;;5037936;28;20205;-93
2023/07/26 03:56:57;;;;;;;2.63;1.58;;;12.80;99.90;;;;;;5038268;28;20197;-93
2023/07/26 03:59:24;;;;;;;5.55;1.50;;;12.80;99.90;;;;;;5037710;28;20201;-93
2023/07/26 04:01:49;;;;;;;5.15;1.63;;;12.80;99.90;;;;;;5037629;28;20174;-94
2023/07/26 04:04:15;;;;;;;3.55;1.50;;;12.70;99.90;;;;;;5037148;28;20201;-94
2023/07/26 04:06:41;;;;;;;4.15;2.17;;;12.80;99.90;;;;;;5037162;28;20558;-92
2023/07/26 04:09:06;;;;;;;2.45;1.42;;;12.80;99.90;;;;;;5037694;28;20185;-93
2023/07/26 04:11:32;;;;;;;2.25;1.40;;;12.80;99.90;;;;;;5038428;28;20174;-95
2023/07/26 04:13:58;;;;;;;4.32;1.45;;;12.80;99.90;;;;;;5037235;28;20252;-92
2023/07/26 04:16:23;;;;;;;3.65;1.70;;;12.90;99.90;;;;;;5037922;28;20226;-93
2023/07/26 04:18:49;;;;;;;4.55;1.70;;;12.90;99.90;;;;;;5037144;28;20225;-94
2023/07/26 04:21:23;;;;;;;3.70;1.55;;;12.90;99.90;;;;;;5037230;28;20612;-94
2023/07/26 04:23:49;;;;;;;5.18;1.55;;;12.90;99.90;;;;;;5037804;28;20202;-95
2023/07/26 04:26:15;;;;;;;2.78;1.35;;;12.90;99.90;;;;;;5037390;28;20178;-95
2023/07/26 04:28:41;;;;;;;3.90;1.40;;;12.90;99.90;;;;;;5037466;28;20185;-94
2023/07/26 04:31:16;;;;;;;6.35;1.67;;;12.90;99.90;;;;;;5055155;28;20177;-93
2023/07/26 04:33:42;;;;;;;3.90;1.70;;;13.00;99.90;;;;;;5036942;28;20221;-95
2023/07/26 04:36:08;;;;;;;5.07;1.52;;;13.00;99.90;;;;;;5030594;28;20652;-95
2023/07/26 04:38:33;;;;;;;2.33;1.40;;;13.00;99.90;;;;;;5044564;28;20186;-94
2023/07/26 04:41:04;;;;;;;3.05;1.30;;;13.10;99.90;;;;;;5037289;28;20224;-95
2023/07/26 04:43:29;;;;;;;3.50;1.60;;;13.10;99.90;;;;;;5037113;28;20209;-96
2023/07/26 04:45:55;;;;;;;3.97;1.50;;;13.10;99.90;;;;;;5037325;28;20212;-96
2023/07/26 04:48:21;;;;;;;2.65;1.50;;;13.10;99.90;;;;;;5036220;28;20174;-95
2023/07/26 04:50:48;;;;;;;3.38;1.45;;;13.10;99.90;;;;;;5036705;28;20185;-94
2023/07/26 04:53:14;;;;;;;3.50;1.58;;;13.10;99.90;;;;;;5037665;28;20208;-93
2023/07/26 04:55:48;;;;;;;3.70;1.83;;;13.20;99.90;;;;;;5037198;28;20190;-94
2023/07/26 04:58:14;;;;;;;4.05;1.50;;;13.20;99.90;;;;;;5038965;28;20573;-94
2023/07/26 05:00:50;;;;;;;3.80;1.50;;;13.30;99.90;;;;;;5037103;28;20235;-95
2023/07/26 05:03:16;;;;;;;3.35;1.55;;;13.30;99.90;;;;;;5036632;28;20612;-95
2023/07/26 05:05:48;;;;;;;3.08;1.40;;;13.40;99.90;;;;;;5054771;28;20178;-93
2023/07/26 05:08:13;;;;;;;3.90;1.50;;;13.40;99.90;;;;;;5037382;28;20596;-94
2023/07/26 05:10:53;;;;;;;4.15;1.33;;;13.40;99.90;;;;;;5037422;28;20181;-94
2023/07/26 05:13:19;;;;;;;3.03;1.63;;;13.50;99.90;;;;;;5036574;28;20212;-94
2023/07/26 05:15:44;;;;;;;4.97;1.92;;;13.50;99.90;;;;;;5037206;28;20178;-94
2023/07/26 05:18:10;;;;;;;5.70;1.65;;;13.60;99.90;;;;;;5024083;28;20233;-93
2023/07/26 05:20:38;;;;;;;3.55;1.50;;;13.60;99.90;;;;;;5017551;28;20183;-92
2023/07/26 05:23:04;;;;;;;3.75;1.40;;;13.70;99.90;;;;;;5017812;28;20174;-92
2023/07/26 05:25:29;;;;;;;3.40;1.65;;;13.70;99.90;;;;;;5017776;28;20267;-93
2023/07/26 05:27:55;;;;;;;6.03;1.60;;;13.70;99.90;;;;;;5019351;28;20203;-95
2023/07/26 05:33:43;;;;;;;5.35;1.70;;;13.70;99.90;;;;;;5019543;28;20669;-93
2023/07/26 05:36:08;;;;;;;3.55;1.70;;;13.70;99.90;;;;;;5017971;28;20179;-96
2023/07/26 05:38:34;;;;;;;3.10;1.55;;;13.80;99.90;;;;;;5017745;28;20172;-92
2023/07/26 05:41:05;;;;;;;4.88;1.90;;;13.80;99.90;;;;;;5018690;28;20211;-94
2023/07/26 05:43:31;;;;;;;5.72;1.80;;;13.80;99.90;;;;;;5018960;28;20520;-96
2023/07/26 05:45:57;;;;;;;3.53;1.67;;;13.90;99.90;;;;;;5018649;28;20175;-95
2023/07/26 05:48:22;;;;;;;5.35;2.10;;;13.90;99.90;;;;;;5017116;28;20274;-96
2023/07/26 05:50:48;;;;;;;4.20;1.63;;;14.00;99.90;;;;;;5017167;28;20186;-95
2023/07/26 05:53:14;;;;;;;7.43;2.13;;;14.00;99.90;;;;;;5017396;28;20532;-93
2023/07/26 05:55:40;;;;;;;2.45;1.60;;;14.10;99.90;;;;;;5017631;28;20183;-96
2023/07/26 05:58:05;;;;;;;5.78;1.65;;;14.20;99.90;;;;;;5017429;28;20236;-95
2023/07/26 06:00:33;;;;;;;4.57;2.17;;;14.30;99.90;;;;;;5018182;28;20202;-93
2023/07/26 06:02:59;;;;;;;3.10;1.60;;;14.30;99.90;;;;;;5016886;28;20172;-96
2023/07/26 06:05:25;;;;;;;2.75;1.50;;;14.40;99.90;;;;;;5018933;28;20183;-95
2023/07/26 06:07:51;;;;;;;5.28;1.73;;;14.40;99.90;;;;;;5016998;28;20628;-94
2023/07/26 06:10:19;;;;;;;5.18;2.05;;;14.50;99.90;;;;;;5017152;28;20179;-96
2023/07/26 06:12:44;;;;;;;4.72;1.75;;;14.50;99.90;;;;;;5017647;28;20175;-91
2023/07/26 06:15:11;;;;;;;8.45;2.17;;;14.50;99.90;;;;;;5016422;28;20207;-95
2023/07/26 06:17:39;;;;;;;5.45;1.77;;;14.50;99.90;;;;;;5017126;28;20226;-93
2023/07/26 06:20:05;;;;;;;5.47;1.70;;;14.50;99.90;;;;;;5017256;28;20186;-96
2023/07/26 06:22:31;;;;;;;6.72;2.30;;;14.50;99.90;;;;;;5018743;28;20250;-96
2023/07/26 06:24:56;;;;;;;6.30;1.90;;;14.50;99.90;;;;;;5017229;28;20202;-95
2023/07/26 06:27:25;;;;;;;5.28;2.10;;;14.50;99.90;;;;;;5017450;28;20186;-96
2023/07/26 06:29:51;;;;;;;3.13;1.58;;;14.50;99.90;;;;;;5017286;28;20278;-94
2023/07/26 06:32:18;;;;;;;6.68;2.15;;;14.50;99.90;;;;;;5017445;28;20210;-92
2023/07/26 06:34:44;;;;;;;4.55;1.98;;;14.50;99.90;;;;;;5016743;28;20211;-95
2023/07/26 06:37:10;;;;;;;6.63;2.10;;;14.50;99.90;;;;;;5018051;28;20179;-94
2023/07/26 06:39:35;;;;;;;3.03;1.83;;;14.50;99.90;;;;;;5016352;28;20266;-92
2023/07/26 06:42:02;;;;;;;3.17;1.88;;;14.50;99.90;;;;;;5016313;28;20610;-94
2023/07/26 06:44:28;;;;;;;5.55;2.42;;;14.50;99.90;;;;;;5016149;28;20214;-93
2023/07/26 06:46:54;;;;;;;3.95;2.15;;;14.60;99.90;;;;;;5016291;28;20210;-93
2023/07/26 06:49:19;;;;;;;8.15;1.88;;;14.70;99.90;;;;;;5016196;28;20186;-93
2023/07/26 06:51:45;;;;;;;4.05;1.75;;;14.80;99.90;;;;;;5016095;28;20266;-93
2023/07/26 06:54:11;;;;;;;5.05;2.00;;;14.90;99.90;;;;;;5015731;28;20238;-93
2023/07/26 06:56:37;;;;;;;4.22;2.00;;;15.00;99.90;;;;;;5016057;28;20190;-95
2023/07/26 06:59:08;;;;;;;3.95;1.70;;;15.00;99.90;;;;;;5016192;28;20190;-94
2023/07/26 07:01:34;;;;;;;7.00;1.90;;;15.20;99.90;;;;;;5015471;28;20172;-94
2023/07/26 07:03:59;;;;;;;3.63;1.60;;;15.30;99.90;;;;;;5015061;28;20179;-93
2023/07/26 07:06:25;;;;;;;5.75;1.80;;;15.60;99.90;;;;;;5015448;28;20179;-92
2023/07/26 07:08:51;;;;;;;3.42;1.60;;;15.80;99.90;;;;;;5015370;28;20191;-91
2023/07/26 07:11:18;;;;;;;6.15;1.80;;;15.90;99.90;;;;;;5015899;28;20510;-95
2023/07/26 07:13:43;;;;;;;3.55;1.60;;;16.00;99.90;;;;;;5015638;28;20203;-92
2023/07/26 07:16:09;;;;;;;4.22;1.67;;;16.10;99.90;;;;;;5015448;28;20182;-93
2023/07/26 07:18:35;;;;;;;4.18;1.50;;;16.20;99.90;;;;;;5015398;28;20756;-93
2023/07/26 07:21:03;;;;;;;3.15;1.60;;;16.20;99.90;;;;;;5015475;28;20230;-93
2023/07/26 07:23:29;;;;;;;3.55;1.40;;;16.20;99.90;;;;;;5014891;28;20549;-91
2023/07/26 07:25:56;;;;;;;2.97;1.58;;;16.20;99.90;;;;;;5015419;28;20186;-93
2023/07/26 07:28:21;;;;;;;5.00;1.52;;;16.10;99.90;;;;;;5015414;28;20236;-91
2023/07/26 07:30:47;;;;;;;4.15;1.38;;;16.10;99.90;;;;;;5016330;28;20175;-90
2023/07/26 07:33:13;;;;;;;3.58;1.75;;;16.20;99.90;;;;;;5015040;28;20498;-92
2023/07/26 07:35:40;;;;;;;4.82;2.00;;;16.20;99.90;;;;;;5015085;28;20215;-93
2023/07/26 07:38:07;;;;;;;4.00;1.67;;;16.40;99.90;;;;;;5014896;28;20222;-92
2023/07/26 07:40:32;;;;;;;3.22;1.48;;;16.40;99.90;;;;;;5014140;28;20191;-91
2023/07/26 07:42:59;;;;;;;5.63;1.63;;;16.40;99.90;;;;;;5014837;28;20557;-90
2023/07/26 07:45:25;;;;;;;4.40;1.77;;;16.40;99.90;;;;;;5014908;28;20177;-92
2023/07/26 07:47:50;;;;;;;3.42;1.58;;;16.50;99.90;;;;;;5015094;28;20179;-93
2023/07/26 07:50:16;;;;;;;4.93;1.83;;;16.50;99.90;;;;;;5014671;28;20214;-92
2023/07/26 07:52:42;;;;;;;4.78;1.58;;;16.60;99.90;;;;;;5014781;28;20311;-94
2023/07/26 07:55:08;;;;;;;4.28;1.50;;;16.70;99.90;;;;;;5015635;28;20199;-91
2023/07/26 07:57:34;;;;;;;5.32;1.60;;;16.70;99.90;;;;;;5014592;28;20172;-92
2023/07/26 07:59:59;;;;;;;3.85;1.15;;;16.70;99.90;;;;;;5014727;28;20500;-91
2023/07/26 08:02:26;;;;;;;2.38;1.30;;;16.70;99.90;;;;;;5014849;28;20183;-92
2023/07/26 08:04:52;;;;;;;1.88;1.33;;;16.70;99.90;;;;;;5014858;28;20175;-94
2023/07/26 08:07:17;;;;;;;2.03;1.13;;;16.60;99.90;;;;;;5016022;28;20189;-93
2023/07/26 08:09:43;;;;;;;2.45;1.23;;;16.50;99.90;;;;;;5033858;28;20550;-93
2023/07/26 08:12:09;;;;;;;6.28;1.40;;;16.40;99.90;;;;;;5034492;28;20237;-90
2023/07/26 08:14:35;;;;;;;3.17;1.35;;;16.40;99.90;;;;;;5034124;28;20237;-93
2023/07/26 08:17:00;;;;;;;2.53;1.40;;;16.40;99.90;;;;;;5035915;28;20309;-91
2023/07/26 08:19:26;;;;;;;4.57;1.60;;;16.40;99.90;;;;;;5057485;28;20514;-94
2023/07/26 08:21:55;;;;;;;3.38;1.40;;;16.60;99.90;;;;;;5057419;28;20181;-91
2023/07/26 08:24:21;;;;;;;4.53;1.73;;;16.90;99.90;;;;;;5057169;28;20165;-95
2023/07/26 08:26:46;;;;;;;4.32;1.45;;;17.00;99.90;;;;;;5075288;28;20704;-93
2023/07/26 08:29:12;;;;;;;5.95;1.30;;;16.90;99.90;;;;;;5057316;28;20561;-93
2023/07/26 08:31:46;;;;;;;2.92;1.30;;;16.90;99.90;;;;;;5057082;28;20180;-93
2023/07/26 08:34:12;;;;;;;2.83;1.25;;;16.90;99.90;;;;;;5056991;28;20205;-91
2023/07/26 08:36:37;;;;;;;4.35;1.27;;;16.90;99.90;;;;;;5057262;28;20177;-90
2023/07/26 08:39:03;;;;;;;4.93;1.50;;;16.90;99.90;;;;;;5040869;28;20194;-89
2023/07/26 08:41:31;;;;;;;4.00;1.40;;;16.90;99.90;;;;;;5037979;28;20185;-91
2023/07/26 08:44:01;;;;;;;7.47;1.50;;;17.00;99.90;;;;;;5036803;28;20173;-88
2023/07/26 08:46:28;;;;;;;7.78;1.65;;;17.10;99.90;;;;;;5036920;28;20258;-89
2023/07/26 08:48:54;;;;;;;2.70;1.17;;;17.20;99.90;;;;;;5036804;28;20178;-88
2023/07/26 08:51:21;;;;;;;1.55;1.02;;;17.20;99.90;;;;;;5037098;28;20182;-89
2023/07/26 08:53:49;;;;;;;3.28;1.10;;;17.20;99.90;;;;;;5040952;28;20202;-91
2023/07/26 08:56:16;;;;;;;3.92;1.50;;;17.20;99.90;;;;;;5059194;28;20170;-92
2023/07/26 08:58:43;;;;;;;1.85;1.25;;;17.30;99.90;;;;;;5058998;28;20235;-89
2023/07/26 09:01:09;;;;;;;3.90;1.17;;;17.60;99.90;;;;;;5041339;28;20181;-90
2023/07/26 09:03:35;;;;;;;2.75;1.08;;;17.90;99.90;;;;;;5040858;28;20177;-90
2023/07/26 09:06:08;;;;;;;9.18;1.30;;;17.90;99.90;;;;;;5041070;28;20209;-88
2023/07/26 09:08:34;;;;;;;6.32;1.33;;;17.90;99.90;;;;;;5052747;28;20229;-90
2023/07/26 09:11:20;;;;;;;3.05;1.00;;;18.00;99.90;;;;;;5060683;28;20177;-89
2023/07/26 09:13:55;;;;;;;2.67;1.15;;;18.20;99.90;;;;;;5060391;28;20674;-90
2023/07/26 09:16:21;;;;;;;2.58;1.10;;;18.30;99.90;;;;;;5061107;28;20267;-90
2023/07/26 09:18:59;;;;;;;5.47;1.10;;;18.30;99.90;;;;;;5060556;28;20952;-90
2023/07/26 09:21:30;;;;;;;4.82;1.10;;;18.30;99.90;;;;;;5060904;28;20177;-89
2023/07/26 09:24:06;;;;;;;2.65;0.90;;;18.20;99.90;;;;;;5078016;28;20647;-92
2023/07/26 09:26:40;;;;;;;2.13;0.90;;;18.00;99.90;;;;;;5060698;28;20217;-90
2023/07/26 09:29:15;;;;;;;1.10;0.90;;;17.90;99.90;;;;;;5078138;28;20180;-91
2023/07/26 09:31:43;;;;;;;1.65;0.82;;;17.70;99.90;;;;;;5060446;28;20225;-92
2023/07/26 09:34:18;;;;;;;1.17;0.75;;;17.50;99.90;;;;;;5060103;28;20203;-90
2023/07/26 09:36:48;;;;;;;1.30;0.75;;;17.20;99.90;;;;;;5060318;28;20507;-92
2023/07/26 09:39:15;;;;;;;1.25;0.93;;;16.90;99.90;;;;;;5042420;28;20189;-90
2023/07/26 09:41:42;;;;;;;3.80;0.93;;;16.70;99.90;;;;;;5040703;28;20182;-90
2023/07/26 09:44:21;;;;;;;2.67;1.13;;;16.60;99.90;;;;;;5040255;28;20178;-91
2023/07/26 09:46:53;;;;;;;3.03;1.10;;;16.50;99.90;;;;;;5058432;28;20223;-92
2023/07/26 09:49:22;;;;;;;1.40;0.88;;;16.60;99.90;;;;;;5040476;28;20170;-91
2023/07/26 09:51:53;;;;;;;2.90;1.00;;;16.80;99.90;;;;;;5040391;28;20265;-90
2023/07/26 09:54:21;;;;;;;1.13;0.85;;;17.00;99.90;;;;;;5039811;28;20543;-91
2023/07/26 09:56:47;;;;;;;3.13;1.20;;;17.20;99.90;;;;;;5040376;28;20181;-90
2023/07/26 09:59:14;;;;;;;2.53;1.00;;;17.60;99.90;;;;;;5040171;28;20268;-91
2023/07/26 10:01:45;;;;;;;4.60;1.23;;;17.90;99.90;;;;;;5040038;28;20206;-87
2023/07/26 10:04:39;;;;;;;3.03;1.42;;;18.10;99.90;;;;;;5038982;28;20177;-88
2023/07/26 10:07:11;;;;;;;2.30;1.10;;;18.30;99.90;;;;;;5057779;28;20209;-89
2023/07/26 10:09:43;;;;;;;2.17;1.00;;;18.60;99.90;;;;;;5040041;28;20279;-92
2023/07/26 10:12:10;;;;;;;3.53;1.38;;;18.90;99.90;;;;;;5039802;28;20201;-89
2023/07/26 10:14:38;;;;;;;1.95;1.23;;;19.00;99.90;;;;;;5039651;28;20209;-88
2023/07/26 10:17:05;;;;;;;1.88;1.20;;;18.90;99.90;;;;;;5039575;28;20178;-90
2023/07/26 10:19:31;;;;;;;3.22;1.40;;;19.00;99.90;;;;;;5039742;28;20186;-90
2023/07/26 10:21:58;;;;;;;2.67;1.15;;;18.80;99.90;;;;;;5039820;28;20173;-92
2023/07/26 10:24:26;;;;;;;2.28;0.95;;;18.70;99.90;;;;;;5057126;28;20174;-88
2023/07/26 10:26:55;;;;;;;1.48;0.98;;;18.70;99.90;;;;;;5039590;28;20238;-89
2023/07/26 10:29:21;;;;;;;2.00;0.88;;;18.80;99.90;;;;;;5039230;28;20620;-90
2023/07/26 10:31:58;;;;;;;0.88;0.80;;;18.70;99.90;;;;;;5039486;28;20178;-92
2023/07/26 10:34:26;;;;;;;2.30;1.10;;;18.60;99.90;;;;;;5039417;28;20213;-90
2023/07/26 10:36:52;;;;;;;2.92;1.00;;;18.40;99.90;;;;;;5039582;28;20257;-90
2023/07/26 10:39:33;;;;;;;1.35;1.00;;;18.30;99.90;;;;;;5039036;28;20624;-90
2023/07/26 10:42:01;;;;;;;1.75;0.90;;;18.40;99.90;;;;;;5039339;28;20185;-92
2023/07/26 10:44:27;;;;;;;1.25;0.93;;;18.60;99.90;;;;;;5039202;28;20188;-90
2023/07/26 10:46:53;;;;;;;1.77;0.88;;;18.90;99.90;;;;;;5057147;28;20192;-89
2023/07/26 10:49:24;;;;;;;2.08;0.80;;;19.10;99.90;;;;;;5056804;28;20201;-90
2023/07/26 10:52:02;;;;;;;4.85;0.77;;;19.40;99.90;;;;;;5039147;28;20178;-88
2023/07/26 10:54:50;;;;;;;3.22;1.00;;;19.60;99.90;;;;;;5038724;28;20221;-90
2023/07/26 10:57:32;;;;;;;1.25;0.90;;;19.80;99.90;;;;;;5056844;28;20169;-89
2023/07/26 11:00:06;;;;;;;2.10;0.80;;;20.00;99.90;;;;;;5038960;28;20196;-90
2023/07/26 11:02:49;;;;;;;1.40;0.77;;;20.20;99.90;;;;;;5038971;28;20269;-90
2023/07/26 11:05:22;;;;;;;2.35;0.95;;;20.30;99.90;;;;;;5038825;28;20560;-90
2023/07/26 11:07:53;;;;;;;2.03;0.82;;;20.50;99.90;;;;;;5038644;28;20280;-89
2023/07/26 11:10:24;;;;;;;0.95;0.70;;;20.70;98.80;;;;;;5056049;28;20173;-90
2023/07/26 11:13:04;;;;;;;1.38;0.85;;;20.50;98.10;;;;;;5056403;28;20162;-88
2023/07/26 11:15:31;;;;;;;2.60;0.90;;;20.10;99.50;;;;;;5038546;28;20266;-88
2023/07/26 11:17:57;;;;;;;1.52;0.90;;;19.60;99.60;;;;;;5056060;28;20221;-89
2023/07/26 11:20:23;;;;;;;1.23;0.80;;;19.20;99.90;;;;;;5038363;28;20182;-91
2023/07/26 11:22:49;;;;;;;2.25;1.20;;;18.60;99.90;;;;;;5056389;28;20170;-90
2023/07/26 11:25:25;;;;;;;1.20;1.00;;;18.20;99.90;;;;;;5038134;28;20178;-89
2023/07/26 11:27:51;;;;;;;8.10;1.10;;;17.80;99.90;;;;;;5038528;28;20198;-89
2023/07/26 11:30:19;;;;;;;2.28;1.00;;;17.70;99.90;;;;;;5038666;28;20518;-92
2023/07/26 11:32:50;;;;;;;4.22;1.48;;;17.50;99.90;;;;;;5038884;28;20184;-87
2023/07/26 11:35:20;;;;;;;3.90;1.48;;;17.30;99.90;;;;;;5054830;28;20202;-86
2023/07/26 11:37:54;;;;;;;2.35;1.35;;;17.00;99.90;;;;;;5055364;28;20185;-86
2023/07/26 11:40:20;;;;;;;2.17;1.38;;;16.60;99.90;;;;;;5037709;28;20180;-87
2023/07/26 11:42:46;;;;;;;3.25;1.25;;;16.30;99.90;;;;;;5038051;28;20177;-88
2023/07/26 11:45:15;;;;;;;1.80;1.55;;;16.20;99.90;;;;;;5038309;28;20182;-89
2023/07/26 11:47:41;;;;;;;1.50;1.15;;;16.10;99.90;;;;;;5038163;28;20177;-88
2023/07/26 11:50:07;;;;;;;2.88;1.17;;;16.00;99.90;;;;;;5038058;28;20265;-89
2023/07/26 11:52:34;;;;;;;3.10;1.30;;;15.90;99.90;;;;;;5037761;28;20180;-93
2023/07/26 11:55:03;;;;;;;2.85;1.33;;;15.80;99.90;;;;;;5036801;28;20213;-91
2023/07/26 11:57:30;;;;;;;4.50;1.48;;;15.70;99.90;;;;;;5037842;28;20169;-89
2023/07/26 11:59:58;;;;;;;6.57;1.90;;;15.60;99.90;;;;;;5055548;28;20174;-87
2023/07/26 12:02:25;;;;;;;4.03;1.50;;;15.50;99.90;;;;;;5037907;28;20170;-88
2023/07/26 12:05:20;;;;;;;2.70;1.48;;;15.30;99.90;;;;;;5037699;28;20273;-88
2023/07/26 12:07:53;;;;;;;2.30;1.60;;;15.20;99.90;;;;;;5037598;28;20190;-89
2023/07/26 12:10:35;;;;;;;5.15;1.70;;;15.20;99.90;;;;;;5037105;28;20181;-88
2023/07/26 12:13:09;;;;;;;3.25;1.52;;;15.10;99.90;;;;;;5037589;28;20181;-89
2023/07/26 12:15:55;;;;;;;2.20;1.50;;;15.00;99.90;;;;;;5037669;28;20605;-89
2023/07/26 12:18:23;;;;;;;3.80;1.88;;;14.90;99.90;;;;;;5037224;28;20324;-87
2023/07/26 12:21:02;;;;;;;5.25;2.05;;;15.00;99.90;;;;;;5037264;28;20186;-88
2023/07/26 12:23:29;;;;;;;4.25;1.63;;;15.20;99.90;;;;;;5054755;28;20576;-87
2023/07/26 12:25:57;;;;;;;3.28;1.58;;;15.40;99.90;;;;;;5036986;28;20235;-90
2023/07/26 12:28:26;;;;;;;2.33;1.80;;;15.70;99.90;;;;;;5036293;28;20175;-90
2023/07/26 12:30:56;;;;;;;2.25;1.67;;;15.90;99.90;;;;;;5017432;28;20175;-87
2023/07/26 12:33:23;;;;;;;2.70;1.60;;;16.20;99.90;;;;;;5017363;28;20756;-89
2023/07/26 12:35:53;;;;;;;2.50;1.80;;;16.40;99.90;;;;;;5017227;28;20189;-86
2023/07/26 12:38:19;;;;;;;5.47;2.17;;;16.60;99.90;;;;;;5017245;28;20167;-90
2023/07/26 12:40:46;;;;;;;2.60;1.90;;;16.70;99.90;;;;;;5016927;28;20269;-89
2023/07/26 12:43:27;;;;;;;3.25;1.90;;;16.80;99.90;;;;;;5017321;28;20181;-90
2023/07/26 12:45:57;;;;;;;6.25;1.95;;;17.10;99.90;;;;;;5017417;28;20215;-89
2023/07/26 12:48:24;;;;;;;3.88;2.08;;;17.60;99.90;;;;;;5017632;28;20274;-88
2023/07/26 12:50:54;;;;;;;3.95;1.77;;;18.00;99.90;;;;;;5017385;28;20179;-91
2023/07/26 12:53:21;;;;;;;5.03;1.65;;;18.40;99.90;;;;;;5017176;28;20169;-91
2023/07/26 12:56:00;;;;;;;2.33;1.70;;;18.60;99.90;;;;;;5017228;28;20182;-92